sensor_id;sensor_type;location;lat;lon;timestamp;temperature;humidity
18191;DHT22;47004;51.366;12.348;2023-06-10T00:00:07;19.10;99.90
18191;DHT22;47004;51.366;12.348;2023-06-10T00:02:13;19.10;99.90
18191;DHT22;47004;51.366;12.348;2023-06-10T00:04:17;19.10;99.90
18191;DHT22;47004;51.366;12.348;2023-06-10T00:06:20;19.00;99.90
18191;DHT22;47004;51.366;12.348;2023-06-10T00:08:24;19.00;99.90
18191;DHT22;47004;51.366;12.348;2023-06-10T00:10:26;18.90;99.90
18191;DHT22;47004;51.366;12.348;2023-06-10T00:12:28;18.90;99.90
18191;DHT22;47004;51.366;12.348;2023-06-10T00:14:31;18.90;99.90
18191;DHT22;47004;51.366;12.348;2023-06-10T00:16:35;18.80;99.90
18191;DHT22;47004;51.366;12.348;2023-06-10T00:18:37;18.80;99.90
18191;DHT22;47004;51.366;12.348;2023-06-10T00:20:39;18.80;99.90
18191;DHT22;47004;51.366;12.348;2023-06-10T00:22:42;18.70;99.90
18191;DHT22;47004;51.366;12.348;2023-06-10T00:24:46;18.70;99.90
18191;DHT22;47004;51.366;12.348;2023-06-10T00:26:48;18.70;99.90
18191;DHT22;47004;51.366;12.348;2023-06-10T00:28:51;18.60;99.90
18191;DHT22;47004;51.366;12.348;2023-06-10T00:30:54;18.60;99.90
18191;DHT22;47004;51.366;12.348;2023-06-10T00:32:55;18.50;99.90
18191;DHT22;47004;51.366;12.348;2023-06-10T00:34:57;18.50;99.90
18191;DHT22;47004;51.366;12.348;2023-06-10T00:36:59;18.40;99.90
18191;DHT22;47004;51.366;12.348;2023-06-10T00:39:03;18.40;99.90
18191;DHT22;47004;51.366;12.348;2023-06-10T00:41:05;18.30;99.90
18191;DHT22;47004;51.366;12.348;2023-06-10T00:43:08;18.30;99.90
18191;DHT22;47004;51.366;12.348;2023-06-10T00:45:10;18.20;99.90
18191;DHT22;47004;51.366;12.348;2023-06-10T00:47:13;18.20;99.90
18191;DHT22;47004;51.366;12.348;2023-06-10T00:49:15;18.10;99.90
18191;DHT22;47004;51.366;12.348;2023-06-10T00:51:18;18.10;99.90
18191;DHT22;47004;51.366;12.348;2023-06-10T00:53:21;18.10;99.90
18191;DHT22;47004;51.366;12.348;2023-06-10T00:55:25;18.00;99.90
18191;DHT22;47004;51.366;12.348;2023-06-10T00:57:27;18.00;99.90
18191;DHT22;47004;51.366;12.348;2023-06-10T00:59:30;17.90;99.90
18191;DHT22;47004;51.366;12.348;2023-06-10T01:01:32;17.90;99.90
18191;DHT22;47004;51.366;12.348;2023-06-10T01:03:34;17.90;99.90
18191;DHT22;47004;51.366;12.348;2023-06-10T01:05:37;17.80;99.90
18191;DHT22;47004;51.366;12.348;2023-06-10T01:07:45;17.80;99.90
18191;DHT22;47004;51.366;12.348;2023-06-10T01:09:55;17.80;99.90
18191;DHT22;47004;51.366;12.348;2023-06-10T01:12:08;17.70;99.90
18191;DHT22;47004;51.366;12.348;2023-06-10T01:14:12;17.70;99.90
18191;DHT22;47004;51.366;12.348;2023-06-10T01:16:15;17.60;99.90
18191;DHT22;47004;51.366;12.348;2023-06-10T01:18:17;17.60;99.90
18191;DHT22;47004;51.366;12.348;2023-06-10T01:20:19;17.50;99.90
18191;DHT22;47004;51.366;12.348;2023-06-10T01:22:23;17.50;99.90
18191;DHT22;47004;51.366;12.348;2023-06-10T01:24:26;17.50;99.90
18191;DHT22;47004;51.366;12.348;2023-06-10T01:26:30;17.40;99.90
18191;DHT22;47004;51.366;12.348;2023-06-10T01:28:38;17.40;99.90
18191;DHT22;47004;51.366;12.348;2023-06-10T01:30:46;17.30;99.90
18191;DHT22;47004;51.366;12.348;2023-06-10T01:32:51;17.30;99.90
18191;DHT22;47004;51.366;12.348;2023-06-10T01:34:54;17.20;99.90
18191;DHT22;47004;51.366;12.348;2023-06-10T01:36:58;17.20;99.90
18191;DHT22;47004;51.366;12.348;2023-06-10T01:39:02;17.10;99.90
18191;DHT22;47004;51.366;12.348;2023-06-10T01:41:06;17.10;99.90
18191;DHT22;47004;51.366;12.348;2023-06-10T01:43:09;17.10;99.90
18191;DHT22;47004;51.366;12.348;2023-06-10T01:45:11;17.10;99.90
18191;DHT22;47004;51.366;12.348;2023-06-10T01:47:13;17.00;99.90
18191;DHT22;47004;51.366;12.348;2023-06-10T01:49:15;17.00;99.90
18191;DHT22;47004;51.366;12.348;2023-06-10T01:51:17;17.00;99.90
18191;DHT22;47004;51.366;12.348;2023-06-10T01:53:19;16.90;99.90
18191;DHT22;47004;51.366;12.348;2023-06-10T01:55:23;16.90;99.90
18191;DHT22;47004;51.366;12.348;2023-06-10T01:57:25;16.90;99.90
18191;DHT22;47004;51.366;12.348;2023-06-10T01:59:26;16.80;99.90
18191;DHT22;47004;51.366;12.348;2023-06-10T02:01:29;16.80;99.90
18191;DHT22;47004;51.366;12.348;2023-06-10T02:03:31;16.80;99.90
18191;DHT22;47004;51.366;12.348;2023-06-10T02:05:33;16.70;99.90
18191;DHT22;47004;51.366;12.348;2023-06-10T02:07:34;16.70;99.90
18191;DHT22;47004;51.366;12.348;2023-06-10T02:09:36;16.70;99.90
18191;DHT22;47004;51.366;12.348;2023-06-10T02:11:40;16.70;99.90
18191;DHT22;47004;51.366;12.348;2023-06-10T02:13:42;16.60;99.90
18191;DHT22;47004;51.366;12.348;2023-06-10T02:15:43;16.60;99.90
18191;DHT22;47004;51.366;12.348;2023-06-10T02:17:45;16.50;99.90
18191;DHT22;47004;51.366;12.348;2023-06-10T02:19:49;16.50;99.90
18191;DHT22;47004;51.366;12.348;2023-06-10T02:21:53;16.50;99.90
18191;DHT22;47004;51.366;12.348;2023-06-10T02:23:55;16.50;99.90
18191;DHT22;47004;51.366;12.348;2023-06-10T02:25:57;16.50;99.90
18191;DHT22;47004;51.366;12.348;2023-06-10T02:28:00;16.40;99.90
18191;DHT22;47004;51.366;12.348;2023-06-10T02:30:05;16.40;99.90
18191;DHT22;47004;51.366;12.348;2023-06-10T02:32:08;16.40;99.90
18191;DHT22;47004;51.366;12.348;2023-06-10T02:34:10;16.40;99.90
18191;DHT22;47004;51.366;12.348;2023-06-10T02:36:12;16.30;99.90
18191;DHT22;47004;51.366;12.348;2023-06-10T02:38:16;16.30;99.90
18191;DHT22;47004;51.366;12.348;2023-06-10T02:40:18;16.30;99.90
18191;DHT22;47004;51.366;12.348;2023-06-10T02:42:20;16.20;99.90
18191;DHT22;47004;51.366;12.348;2023-06-10T02:44:24;16.20;99.90
18191;DHT22;47004;51.366;12.348;2023-06-10T02:46:26;16.20;99.90
18191;DHT22;47004;51.366;12.348;2023-06-10T02:48:29;16.10;99.90
18191;DHT22;47004;51.366;12.348;2023-06-10T02:50:31;16.10;99.90
18191;DHT22;47004;51.366;12.348;2023-06-10T02:52:33;16.10;99.90
18191;DHT22;47004;51.366;12.348;2023-06-10T02:54:35;15.90;99.90
18191;DHT22;47004;51.366;12.348;2023-06-10T02:56:37;16.00;99.90
18191;DHT22;47004;51.366;12.348;2023-06-10T02:58:42;16.00;99.90
18191;DHT22;47004;51.366;12.348;2023-06-10T03:00:45;16.00;99.90
18191;DHT22;47004;51.366;12.348;2023-06-10T03:02:47;15.90;99.90
18191;DHT22;47004;51.366;12.348;2023-06-10T03:04:49;15.90;99.90
18191;DHT22;47004;51.366;12.348;2023-06-10T03:06:51;15.90;99.90
18191;DHT22;47004;51.366;12.348;2023-06-10T03:08:53;15.80;99.90
18191;DHT22;47004;51.366;12.348;2023-06-10T03:10:56;15.80;99.90
18191;DHT22;47004;51.366;12.348;2023-06-10T03:12:58;15.80;99.90
18191;DHT22;47004;51.366;12.348;2023-06-10T03:15:00;15.70;99.90
18191;DHT22;47004;51.366;12.348;2023-06-10T03:17:06;15.70;99.90
18191;DHT22;47004;51.366;12.348;2023-06-10T03:19:08;15.70;99.90
18191;DHT22;47004;51.366;12.348;2023-06-10T03:21:11;15.70;99.90
18191;DHT22;47004;51.366;12.348;2023-06-10T03:23:15;15.60;99.90
18191;DHT22;47004;51.366;12.348;2023-06-10T03:25:17;15.60;99.90
18191;DHT22;47004;51.366;12.348;2023-06-10T03:27:21;15.60;99.90
18191;DHT22;47004;51.366;12.348;2023-06-10T03:29:23;15.50;99.90
18191;DHT22;47004;51.366;12.348;2023-06-10T03:31:25;15.50;99.90
18191;DHT22;47004;51.366;12.348;2023-06-10T03:33:28;15.50;99.90
18191;DHT22;47004;51.366;12.348;2023-06-10T03:35:30;15.50;99.90
18191;DHT22;47004;51.366;12.348;2023-06-10T03:37:33;15.40;99.90
18191;DHT22;47004;51.366;12.348;2023-06-10T03:39:34;15.40;99.90
18191;DHT22;47004;51.366;12.348;2023-06-10T03:41:36;15.40;99.90
18191;DHT22;47004;51.366;12.348;2023-06-10T03:43:38;15.30;99.90
18191;DHT22;47004;51.366;12.348;2023-06-10T03:45:41;15.30;99.90
18191;DHT22;47004;51.366;12.348;2023-06-10T03:47:43;15.40;99.90
18191;DHT22;47004;51.366;12.348;2023-06-10T03:49:47;15.40;99.90
18191;DHT22;47004;51.366;12.348;2023-06-10T03:51:49;15.30;99.90
18191;DHT22;47004;51.366;12.348;2023-06-10T03:53:50;15.30;99.90
18191;DHT22;47004;51.366;12.348;2023-06-10T03:55:52;15.30;99.90
18191;DHT22;47004;51.366;12.348;2023-06-10T03:57:54;15.30;99.90
18191;DHT22;47004;51.366;12.348;2023-06-10T03:59:56;15.30;99.90
18191;DHT22;47004;51.366;12.348;2023-06-10T04:01:58;15.20;99.90
18191;DHT22;47004;51.366;12.348;2023-06-10T04:04:01;15.20;99.90
18191;DHT22;47004;51.366;12.348;2023-06-10T04:06:04;15.20;99.90
18191;DHT22;47004;51.366;12.348;2023-06-10T04:08:06;15.20;99.90
18191;DHT22;47004;51.366;12.348;2023-06-10T04:10:09;15.20;99.90
18191;DHT22;47004;51.366;12.348;2023-06-10T04:12:11;15.20;99.90
18191;DHT22;47004;51.366;12.348;2023-06-10T04:14:13;15.20;99.90
18191;DHT22;47004;51.366;12.348;2023-06-10T04:16:15;15.20;99.90
18191;DHT22;47004;51.366;12.348;2023-06-10T04:18:17;15.20;99.90
18191;DHT22;47004;51.366;12.348;2023-06-10T04:20:22;15.20;99.90
18191;DHT22;47004;51.366;12.348;2023-06-10T04:22:25;15.10;99.90
18191;DHT22;47004;51.366;12.348;2023-06-10T04:24:27;15.10;99.90
18191;DHT22;47004;51.366;12.348;2023-06-10T04:26:29;15.10;99.90
18191;DHT22;47004;51.366;12.348;2023-06-10T04:28:31;15.10;99.90
18191;DHT22;47004;51.366;12.348;2023-06-10T04:30:33;15.10;99.90
18191;DHT22;47004;51.366;12.348;2023-06-10T04:32:35;15.10;99.90
18191;DHT22;47004;51.366;12.348;2023-06-10T04:34:37;15.10;99.90
18191;DHT22;47004;51.366;12.348;2023-06-10T04:36:40;15.10;99.90
18191;DHT22;47004;51.366;12.348;2023-06-10T04:38:44;15.10;99.90
18191;DHT22;47004;51.366;12.348;2023-06-10T04:40:46;15.10;99.90
18191;DHT22;47004;51.366;12.348;2023-06-10T04:42:48;15.10;99.90
18191;DHT22;47004;51.366;12.348;2023-06-10T04:44:50;15.10;99.90
18191;DHT22;47004;51.366;12.348;2023-06-10T04:46:52;15.20;99.90
18191;DHT22;47004;51.366;12.348;2023-06-10T04:48:55;15.10;99.90
18191;DHT22;47004;51.366;12.348;2023-06-10T04:50:59;15.10;99.90
18191;DHT22;47004;51.366;12.348;2023-06-10T04:53:01;15.10;99.90
18191;DHT22;47004;51.366;12.348;2023-06-10T04:55:05;15.10;99.90
18191;DHT22;47004;51.366;12.348;2023-06-10T04:57:07;15.10;99.90
18191;DHT22;47004;51.366;12.348;2023-06-10T04:59:11;15.10;99.90
18191;DHT22;47004;51.366;12.348;2023-06-10T05:01:15;15.10;99.90
18191;DHT22;47004;51.366;12.348;2023-06-10T05:03:17;15.10;99.90
18191;DHT22;47004;51.366;12.348;2023-06-10T05:05:19;15.10;99.90
18191;DHT22;47004;51.366;12.348;2023-06-10T05:07:21;15.20;99.90
18191;DHT22;47004;51.366;12.348;2023-06-10T05:09:23;15.10;99.90
18191;DHT22;47004;51.366;12.348;2023-06-10T05:11:26;15.20;99.90
18191;DHT22;47004;51.366;12.348;2023-06-10T05:13:32;15.20;99.90
18191;DHT22;47004;51.366;12.348;2023-06-10T05:15:36;15.20;99.90
18191;DHT22;47004;51.366;12.348;2023-06-10T05:17:38;15.20;99.90
18191;DHT22;47004;51.366;12.348;2023-06-10T05:19:40;15.20;99.90
18191;DHT22;47004;51.366;12.348;2023-06-10T05:21:47;15.20;99.90
18191;DHT22;47004;51.366;12.348;2023-06-10T05:23:49;15.30;99.90
18191;DHT22;47004;51.366;12.348;2023-06-10T05:25:50;15.30;99.90
18191;DHT22;47004;51.366;12.348;2023-06-10T05:27:54;15.30;99.90
18191;DHT22;47004;51.366;12.348;2023-06-10T05:29:56;15.30;99.90
18191;DHT22;47004;51.366;12.348;2023-06-10T05:31:58;15.30;99.90
18191;DHT22;47004;51.366;12.348;2023-06-10T05:34:03;15.40;99.90
18191;DHT22;47004;51.366;12.348;2023-06-10T05:36:06;15.40;99.90
18191;DHT22;47004;51.366;12.348;2023-06-10T05:38:08;15.40;99.90
18191;DHT22;47004;51.366;12.348;2023-06-10T05:40:10;15.40;99.90
18191;DHT22;47004;51.366;12.348;2023-06-10T05:42:13;15.40;99.90
18191;DHT22;47004;51.366;12.348;2023-06-10T05:44:16;15.50;99.90
18191;DHT22;47004;51.366;12.348;2023-06-10T05:46:19;15.50;99.90
18191;DHT22;47004;51.366;12.348;2023-06-10T05:48:21;15.60;99.90
18191;DHT22;47004;51.366;12.348;2023-06-10T05:50:25;15.60;99.90
18191;DHT22;47004;51.366;12.348;2023-06-10T05:52:27;15.60;99.90
18191;DHT22;47004;51.366;12.348;2023-06-10T05:54:29;15.60;99.90
18191;DHT22;47004;51.366;12.348;2023-06-10T05:56:31;15.70;99.90
18191;DHT22;47004;51.366;12.348;2023-06-10T05:58:33;15.70;99.90
18191;DHT22;47004;51.366;12.348;2023-06-10T06:00:36;15.70;99.90
18191;DHT22;47004;51.366;12.348;2023-06-10T06:02:38;15.80;99.90
18191;DHT22;47004;51.366;12.348;2023-06-10T06:04:40;15.80;99.90
18191;DHT22;47004;51.366;12.348;2023-06-10T06:06:42;15.80;99.90
18191;DHT22;47004;51.366;12.348;2023-06-10T06:08:47;15.90;99.90
18191;DHT22;47004;51.366;12.348;2023-06-10T06:10:50;15.90;99.90
18191;DHT22;47004;51.366;12.348;2023-06-10T06:12:54;16.00;99.90
18191;DHT22;47004;51.366;12.348;2023-06-10T06:14:58;16.00;99.90
18191;DHT22;47004;51.366;12.348;2023-06-10T06:17:02;16.00;99.90
18191;DHT22;47004;51.366;12.348;2023-06-10T06:19:03;16.10;99.90
18191;DHT22;47004;51.366;12.348;2023-06-10T06:21:05;16.10;99.90
18191;DHT22;47004;51.366;12.348;2023-06-10T06:23:07;16.20;99.90
18191;DHT22;47004;51.366;12.348;2023-06-10T06:25:10;16.20;99.90
18191;DHT22;47004;51.366;12.348;2023-06-10T06:27:12;16.20;99.90
18191;DHT22;47004;51.366;12.348;2023-06-10T06:29:14;16.30;99.90
18191;DHT22;47004;51.366;12.348;2023-06-10T06:31:16;16.30;99.90
18191;DHT22;47004;51.366;12.348;2023-06-10T06:33:20;16.40;99.90
18191;DHT22;47004;51.366;12.348;2023-06-10T06:35:21;16.40;99.90
18191;DHT22;47004;51.366;12.348;2023-06-10T06:37:24;16.50;99.90
18191;DHT22;47004;51.366;12.348;2023-06-10T06:39:26;16.50;99.90
18191;DHT22;47004;51.366;12.348;2023-06-10T06:41:28;16.60;99.90
18191;DHT22;47004;51.366;12.348;2023-06-10T06:43:30;16.60;99.90
18191;DHT22;47004;51.366;12.348;2023-06-10T06:45:32;16.60;99.90
18191;DHT22;47004;51.366;12.348;2023-06-10T06:47:35;16.70;99.90
18191;DHT22;47004;51.366;12.348;2023-06-10T06:49:38;16.70;99.90
18191;DHT22;47004;51.366;12.348;2023-06-10T06:51:40;16.70;99.90
18191;DHT22;47004;51.366;12.348;2023-06-10T06:53:42;16.80;99.90
18191;DHT22;47004;51.366;12.348;2023-06-10T06:55:45;16.90;99.90
18191;DHT22;47004;51.366;12.348;2023-06-10T06:57:47;16.90;99.90
18191;DHT22;47004;51.366;12.348;2023-06-10T06:59:49;17.00;99.90
18191;DHT22;47004;51.366;12.348;2023-06-10T07:01:51;17.00;99.90
18191;DHT22;47004;51.366;12.348;2023-06-10T07:03:54;17.00;99.90
18191;DHT22;47004;51.366;12.348;2023-06-10T07:05:57;17.10;99.90
18191;DHT22;47004;51.366;12.348;2023-06-10T07:07:59;17.20;99.90
18191;DHT22;47004;51.366;12.348;2023-06-10T07:10:01;17.20;99.90
18191;DHT22;47004;51.366;12.348;2023-06-10T07:12:04;17.20;99.90
18191;DHT22;47004;51.366;12.348;2023-06-10T07:14:06;17.20;99.90
18191;DHT22;47004;51.366;12.348;2023-06-10T07:16:08;17.30;99.90
18191;DHT22;47004;51.366;12.348;2023-06-10T07:18:10;17.40;99.90
18191;DHT22;47004;51.366;12.348;2023-06-10T07:20:12;17.40;99.90
18191;DHT22;47004;51.366;12.348;2023-06-10T07:22:16;17.50;99.90
18191;DHT22;47004;51.366;12.348;2023-06-10T07:24:18;17.50;99.90
18191;DHT22;47004;51.366;12.348;2023-06-10T07:26:22;17.60;99.90
18191;DHT22;47004;51.366;12.348;2023-06-10T07:28:24;17.70;99.90
18191;DHT22;47004;51.366;12.348;2023-06-10T07:30:26;17.70;99.90
18191;DHT22;47004;51.366;12.348;2023-06-10T07:32:28;17.80;99.90
18191;DHT22;47004;51.366;12.348;2023-06-10T07:34:30;17.80;99.90
18191;DHT22;47004;51.366;12.348;2023-06-10T07:36:32;17.90;99.90
18191;DHT22;47004;51.366;12.348;2023-06-10T07:38:35;17.90;99.90
18191;DHT22;47004;51.366;12.348;2023-06-10T07:40:38;18.00;99.90
18191;DHT22;47004;51.366;12.348;2023-06-10T07:42:40;18.00;99.90
18191;DHT22;47004;51.366;12.348;2023-06-10T07:44:42;18.10;99.90
18191;DHT22;47004;51.366;12.348;2023-06-10T07:46:44;18.10;99.90
18191;DHT22;47004;51.366;12.348;2023-06-10T07:48:46;18.20;99.90
18191;DHT22;47004;51.366;12.348;2023-06-10T07:50:48;18.30;99.90
18191;DHT22;47004;51.366;12.348;2023-06-10T07:52:50;18.40;99.90
18191;DHT22;47004;51.366;12.348;2023-06-10T07:54:54;18.40;99.90
18191;DHT22;47004;51.366;12.348;2023-06-10T07:56:56;18.50;99.90
18191;DHT22;47004;51.366;12.348;2023-06-10T07:59:00;18.50;99.90
18191;DHT22;47004;51.366;12.348;2023-06-10T08:01:02;18.60;99.90
18191;DHT22;47004;51.366;12.348;2023-06-10T08:03:04;18.70;99.90
18191;DHT22;47004;51.366;12.348;2023-06-10T08:05:07;18.70;99.90
18191;DHT22;47004;51.366;12.348;2023-06-10T08:07:09;18.80;99.90
18191;DHT22;47004;51.366;12.348;2023-06-10T08:09:11;18.90;99.90
18191;DHT22;47004;51.366;12.348;2023-06-10T08:11:14;18.90;99.90
18191;DHT22;47004;51.366;12.348;2023-06-10T08:13:16;19.00;99.90
18191;DHT22;47004;51.366;12.348;2023-06-10T08:15:18;19.00;99.90
18191;DHT22;47004;51.366;12.348;2023-06-10T08:17:20;19.10;99.90
18191;DHT22;47004;51.366;12.348;2023-06-10T08:19:22;19.20;99.90
18191;DHT22;47004;51.366;12.348;2023-06-10T08:21:23;19.20;99.90
18191;DHT22;47004;51.366;12.348;2023-06-10T08:23:25;19.30;99.90
18191;DHT22;47004;51.366;12.348;2023-06-10T08:25:27;19.40;99.90
18191;DHT22;47004;51.366;12.348;2023-06-10T08:27:31;19.40;99.90
18191;DHT22;47004;51.366;12.348;2023-06-10T08:29:33;19.50;99.90
18191;DHT22;47004;51.366;12.348;2023-06-10T08:31:35;19.60;99.90
18191;DHT22;47004;51.366;12.348;2023-06-10T08:33:37;19.70;99.90
18191;DHT22;47004;51.366;12.348;2023-06-10T08:35:40;19.80;99.90
18191;DHT22;47004;51.366;12.348;2023-06-10T08:37:43;19.80;99.90
18191;DHT22;47004;51.366;12.348;2023-06-10T08:39:45;19.90;99.90
18191;DHT22;47004;51.366;12.348;2023-06-10T08:41:51;20.00;99.90
18191;DHT22;47004;51.366;12.348;2023-06-10T08:44:16;20.00;99.90
18191;DHT22;47004;51.366;12.348;2023-06-10T08:46:19;20.10;99.90
18191;DHT22;47004;51.366;12.348;2023-06-10T08:48:22;20.20;99.90
18191;DHT22;47004;51.366;12.348;2023-06-10T08:50:24;20.30;99.90
18191;DHT22;47004;51.366;12.348;2023-06-10T08:52:29;20.30;99.90
18191;DHT22;47004;51.366;12.348;2023-06-10T08:54:36;20.40;99.90
18191;DHT22;47004;51.366;12.348;2023-06-10T08:56:40;20.50;99.90
18191;DHT22;47004;51.366;12.348;2023-06-10T08:58:43;20.60;99.90
18191;DHT22;47004;51.366;12.348;2023-06-10T09:00:47;20.70;99.90
18191;DHT22;47004;51.366;12.348;2023-06-10T09:02:49;20.80;99.90
18191;DHT22;47004;51.366;12.348;2023-06-10T09:04:52;20.90;99.90
18191;DHT22;47004;51.366;12.348;2023-06-10T09:06:56;21.00;99.90
18191;DHT22;47004;51.366;12.348;2023-06-10T09:08:59;21.10;99.90
18191;DHT22;47004;51.366;12.348;2023-06-10T09:11:01;21.20;99.90
18191;DHT22;47004;51.366;12.348;2023-06-10T09:13:05;21.20;99.90
18191;DHT22;47004;51.366;12.348;2023-06-10T09:15:08;21.30;99.90
18191;DHT22;47004;51.366;12.348;2023-06-10T09:17:13;21.40;99.90
18191;DHT22;47004;51.366;12.348;2023-06-10T09:19:18;21.50;99.90
18191;DHT22;47004;51.366;12.348;2023-06-10T09:21:22;21.60;99.90
18191;DHT22;47004;51.366;12.348;2023-06-10T09:23:24;21.70;99.90
18191;DHT22;47004;51.366;12.348;2023-06-10T09:25:35;21.80;99.90
18191;DHT22;47004;51.366;12.348;2023-06-10T09:27:45;21.90;99.90
18191;DHT22;47004;51.366;12.348;2023-06-10T09:29:52;22.00;99.90
18191;DHT22;47004;51.366;12.348;2023-06-10T09:31:54;22.10;99.90
18191;DHT22;47004;51.366;12.348;2023-06-10T09:34:06;22.20;99.90
18191;DHT22;47004;51.366;12.348;2023-06-10T09:36:09;22.30;99.90
18191;DHT22;47004;51.366;12.348;2023-06-10T09:38:11;22.40;99.90
18191;DHT22;47004;51.366;12.348;2023-06-10T09:40:13;22.50;99.90
18191;DHT22;47004;51.366;12.348;2023-06-10T09:42:18;22.60;99.90
18191;DHT22;47004;51.366;12.348;2023-06-10T09:44:21;22.70;99.90
18191;DHT22;47004;51.366;12.348;2023-06-10T09:46:30;22.80;99.90
18191;DHT22;47004;51.366;12.348;2023-06-10T09:48:35;22.90;99.90
18191;DHT22;47004;51.366;12.348;2023-06-10T09:50:44;23.00;99.90
18191;DHT22;47004;51.366;12.348;2023-06-10T09:52:47;23.20;99.90
18191;DHT22;47004;51.366;12.348;2023-06-10T09:54:49;23.20;99.90
18191;DHT22;47004;51.366;12.348;2023-06-10T09:56:51;23.40;99.90
18191;DHT22;47004;51.366;12.348;2023-06-10T09:58:53;23.50;99.90
18191;DHT22;47004;51.366;12.348;2023-06-10T10:00:55;23.70;99.90
18191;DHT22;47004;51.366;12.348;2023-06-10T10:02:57;23.80;99.90
18191;DHT22;47004;51.366;12.348;2023-06-10T10:05:02;23.90;99.90
18191;DHT22;47004;51.366;12.348;2023-06-10T10:07:06;24.00;99.90
18191;DHT22;47004;51.366;12.348;2023-06-10T10:09:09;24.10;99.90
18191;DHT22;47004;51.366;12.348;2023-06-10T10:11:11;24.40;99.90
18191;DHT22;47004;51.366;12.348;2023-06-10T10:13:14;24.50;99.90
18191;DHT22;47004;51.366;12.348;2023-06-10T10:15:16;24.60;99.90
18191;DHT22;47004;51.366;12.348;2023-06-10T10:17:20;24.80;99.90
18191;DHT22;47004;51.366;12.348;2023-06-10T10:19:28;25.00;99.90
18191;DHT22;47004;51.366;12.348;2023-06-10T10:21:38;25.10;99.90
18191;DHT22;47004;51.366;12.348;2023-06-10T10:23:51;25.30;99.90
18191;DHT22;47004;51.366;12.348;2023-06-10T10:25:55;25.50;99.90
18191;DHT22;47004;51.366;12.348;2023-06-10T10:28:02;25.70;99.90
18191;DHT22;47004;51.366;12.348;2023-06-10T10:30:11;25.90;99.90
18191;DHT22;47004;51.366;12.348;2023-06-10T10:32:16;26.00;99.90
18191;DHT22;47004;51.366;12.348;2023-06-10T10:34:21;26.20;99.90
18191;DHT22;47004;51.366;12.348;2023-06-10T10:36:25;26.40;99.90
18191;DHT22;47004;51.366;12.348;2023-06-10T10:38:28;26.60;99.90
18191;DHT22;47004;51.366;12.348;2023-06-10T10:40:32;26.80;99.90
18191;DHT22;47004;51.366;12.348;2023-06-10T10:42:34;27.00;99.90
18191;DHT22;47004;51.366;12.348;2023-06-10T10:44:38;27.10;99.90
18191;DHT22;47004;51.366;12.348;2023-06-10T10:46:43;27.30;99.90
18191;DHT22;47004;51.366;12.348;2023-06-10T10:48:47;27.50;99.90
18191;DHT22;47004;51.366;12.348;2023-06-10T10:50:56;27.60;99.90
18191;DHT22;47004;51.366;12.348;2023-06-10T10:53:00;27.80;99.90
18191;DHT22;47004;51.366;12.348;2023-06-10T10:55:12;27.90;99.90
18191;DHT22;47004;51.366;12.348;2023-06-10T10:57:17;28.10;98.20
18191;DHT22;47004;51.366;12.348;2023-06-10T10:59:19;28.20;99.20
18191;DHT22;47004;51.366;12.348;2023-06-10T11:01:24;28.30;99.80
18191;DHT22;47004;51.366;12.348;2023-06-10T11:03:28;28.50;97.00
18191;DHT22;47004;51.366;12.348;2023-06-10T11:05:35;28.70;94.80
18191;DHT22;47004;51.366;12.348;2023-06-10T11:07:38;28.80;97.70
18191;DHT22;47004;51.366;12.348;2023-06-10T11:09:57;29.00;91.50
18191;DHT22;47004;51.366;12.348;2023-06-10T11:12:00;29.10;91.90
18191;DHT22;47004;51.366;12.348;2023-06-10T11:14:07;29.30;84.50
18191;DHT22;47004;51.366;12.348;2023-06-10T11:16:10;29.40;73.20
18191;DHT22;47004;51.366;12.348;2023-06-10T11:18:15;29.50;72.70
18191;DHT22;47004;51.366;12.348;2023-06-10T11:22:58;29.80;70.70
18191;DHT22;47004;51.366;12.348;2023-06-10T11:25:00;29.80;68.80
18191;DHT22;47004;51.366;12.348;2023-06-10T11:27:15;30.00;72.30
18191;DHT22;47004;51.366;12.348;2023-06-10T11:29:19;30.10;65.00
18191;DHT22;47004;51.366;12.348;2023-06-10T11:31:22;30.20;64.50
18191;DHT22;47004;51.366;12.348;2023-06-10T11:33:24;30.20;62.00
18191;DHT22;47004;51.366;12.348;2023-06-10T11:35:26;30.20;70.80
18191;DHT22;47004;51.366;12.348;2023-06-10T11:37:28;30.40;65.60
18191;DHT22;47004;51.366;12.348;2023-06-10T11:39:30;30.50;60.40
18191;DHT22;47004;51.366;12.348;2023-06-10T11:41:36;30.70;57.60
18191;DHT22;47004;51.366;12.348;2023-06-10T11:43:43;30.80;56.80
18191;DHT22;47004;51.366;12.348;2023-06-10T11:45:46;30.90;57.80
18191;DHT22;47004;51.366;12.348;2023-06-10T11:47:58;31.00;54.60
18191;DHT22;47004;51.366;12.348;2023-06-10T11:50:00;31.00;53.40
18191;DHT22;47004;51.366;12.348;2023-06-10T11:52:04;31.00;53.40
18191;DHT22;47004;51.366;12.348;2023-06-10T11:54:08;31.00;53.70
18191;DHT22;47004;51.366;12.348;2023-06-10T11:56:13;31.00;55.80
18191;DHT22;47004;51.366;12.348;2023-06-10T11:58:16;31.20;54.40
18191;DHT22;47004;51.366;12.348;2023-06-10T12:00:19;31.60;50.70
18191;DHT22;47004;51.366;12.348;2023-06-10T12:02:25;32.00;48.80
18191;DHT22;47004;51.366;12.348;2023-06-10T12:04:27;32.50;46.50
18191;DHT22;47004;51.366;12.348;2023-06-10T12:06:38;33.10;43.90
18191;DHT22;47004;51.366;12.348;2023-06-10T12:08:42;33.80;41.40
18191;DHT22;47004;51.366;12.348;2023-06-10T12:10:44;34.50;38.90
18191;DHT22;47004;51.366;12.348;2023-06-10T12:12:46;35.30;37.40
18191;DHT22;47004;51.366;12.348;2023-06-10T12:14:51;35.90;36.40
18191;DHT22;47004;51.366;12.348;2023-06-10T12:16:56;36.70;34.60
18191;DHT22;47004;51.366;12.348;2023-06-10T12:19:05;37.30;32.50
18191;DHT22;47004;51.366;12.348;2023-06-10T12:21:19;37.60;30.70
18191;DHT22;47004;51.366;12.348;2023-06-10T12:23:21;37.60;31.00
18191;DHT22;47004;51.366;12.348;2023-06-10T12:25:28;37.80;30.40
18191;DHT22;47004;51.366;12.348;2023-06-10T12:27:30;38.50;30.00
18191;DHT22;47004;51.366;12.348;2023-06-10T12:29:32;39.40;29.20
18191;DHT22;47004;51.366;12.348;2023-06-10T12:31:52;39.80;28.70
18191;DHT22;47004;51.366;12.348;2023-06-10T12:34:11;40.20;27.70
18191;DHT22;47004;51.366;12.348;2023-06-10T12:36:16;40.30;26.40
18191;DHT22;47004;51.366;12.348;2023-06-10T12:38:22;40.00;26.20
18191;DHT22;47004;51.366;12.348;2023-06-10T12:40:28;39.80;26.40
18191;DHT22;47004;51.366;12.348;2023-06-10T12:42:30;39.30;26.90
18191;DHT22;47004;51.366;12.348;2023-06-10T12:44:38;38.60;26.70
18191;DHT22;47004;51.366;12.348;2023-06-10T12:46:40;37.90;27.40
18191;DHT22;47004;51.366;12.348;2023-06-10T12:48:49;37.40;27.70